sensor_id;sensor_type;location;lat;lon;timestamp;temperature;humidity
6738;DHT22;3406;49.902;8.596;2022-12-07T00:01:39;5.00;98.10
6738;DHT22;3406;49.902;8.596;2022-12-07T00:04:08;5.00;98.10
6738;DHT22;3406;49.902;8.596;2022-12-07T00:06:37;5.10;98.10
6738;DHT22;3406;49.902;8.596;2022-12-07T00:09:06;5.10;98.10
6738;DHT22;3406;49.902;8.596;2022-12-07T00:11:33;5.10;98.10
6738;DHT22;3406;49.902;8.596;2022-12-07T00:14:04;5.10;98.00
6738;DHT22;3406;49.902;8.596;2022-12-07T00:16:32;5.00;98.00
6738;DHT22;3406;49.902;8.596;2022-12-07T00:19:00;5.00;98.30
6738;DHT22;3406;49.902;8.596;2022-12-07T00:21:29;4.90;98.10
6738;DHT22;3406;49.902;8.596;2022-12-07T00:23:57;4.90;98.20
6738;DHT22;3406;49.902;8.596;2022-12-07T00:26:25;4.90;98.20
6738;DHT22;3406;49.902;8.596;2022-12-07T00:28:54;4.90;98.20
6738;DHT22;3406;49.902;8.596;2022-12-07T00:31:25;4.90;98.20
6738;DHT22;3406;49.902;8.596;2022-12-07T00:33:52;4.90;98.20
6738;DHT22;3406;49.902;8.596;2022-12-07T00:36:21;4.90;98.30
6738;DHT22;3406;49.902;8.596;2022-12-07T00:38:48;4.90;98.20
6738;DHT22;3406;49.902;8.596;2022-12-07T00:41:17;4.80;98.20
6738;DHT22;3406;49.902;8.596;2022-12-07T00:43:45;4.70;98.20
6738;DHT22;3406;49.902;8.596;2022-12-07T00:46:12;4.70;98.40
6738;DHT22;3406;49.902;8.596;2022-12-07T00:48:41;4.70;98.60
6738;DHT22;3406;49.902;8.596;2022-12-07T00:51:08;4.70;98.60
6738;DHT22;3406;49.902;8.596;2022-12-07T00:53:36;4.70;98.50
6738;DHT22;3406;49.902;8.596;2022-12-07T00:56:05;4.60;98.50
6738;DHT22;3406;49.902;8.596;2022-12-07T00:58:32;4.70;98.70
6738;DHT22;3406;49.902;8.596;2022-12-07T01:01:00;4.70;98.80
6738;DHT22;3406;49.902;8.596;2022-12-07T01:03:27;4.70;98.80
6738;DHT22;3406;49.902;8.596;2022-12-07T01:05:56;4.70;98.70
6738;DHT22;3406;49.902;8.596;2022-12-07T01:08:24;4.80;98.70
6738;DHT22;3406;49.902;8.596;2022-12-07T01:10:58;4.80;98.70
6738;DHT22;3406;49.902;8.596;2022-12-07T01:13:25;4.80;98.70
6738;DHT22;3406;49.902;8.596;2022-12-07T01:15:56;4.80;98.70
6738;DHT22;3406;49.902;8.596;2022-12-07T01:18:23;4.80;98.60
6738;DHT22;3406;49.902;8.596;2022-12-07T01:20:59;4.80;98.60
6738;DHT22;3406;49.902;8.596;2022-12-07T01:23:26;4.80;98.70
6738;DHT22;3406;49.902;8.596;2022-12-07T01:25:54;4.80;98.80
6738;DHT22;3406;49.902;8.596;2022-12-07T01:28:21;4.80;98.80
6738;DHT22;3406;49.902;8.596;2022-12-07T01:30:55;4.80;98.80
6738;DHT22;3406;49.902;8.596;2022-12-07T01:33:22;4.80;98.70
6738;DHT22;3406;49.902;8.596;2022-12-07T01:35:48;4.70;98.70
6738;DHT22;3406;49.902;8.596;2022-12-07T01:38:16;4.70;98.90
6738;DHT22;3406;49.902;8.596;2022-12-07T01:40:43;4.70;98.90
6738;DHT22;3406;49.902;8.596;2022-12-07T01:43:15;4.70;99.00
6738;DHT22;3406;49.902;8.596;2022-12-07T01:45:43;4.80;99.00
6738;DHT22;3406;49.902;8.596;2022-12-07T01:48:12;4.80;99.00
6738;DHT22;3406;49.902;8.596;2022-12-07T01:50:42;4.80;98.90
6738;DHT22;3406;49.902;8.596;2022-12-07T01:53:10;4.80;98.80
6738;DHT22;3406;49.902;8.596;2022-12-07T01:55:41;4.70;98.80
6738;DHT22;3406;49.902;8.596;2022-12-07T01:58:09;4.70;98.90
6738;DHT22;3406;49.902;8.596;2022-12-07T02:00:37;4.60;98.90
6738;DHT22;3406;49.902;8.596;2022-12-07T02:03:07;4.60;99.10
6738;DHT22;3406;49.902;8.596;2022-12-07T02:05:37;4.60;99.20
6738;DHT22;3406;49.902;8.596;2022-12-07T02:08:04;4.60;99.10
6738;DHT22;3406;49.902;8.596;2022-12-07T02:10:32;4.60;99.10
6738;DHT22;3406;49.902;8.596;2022-12-07T02:13:02;4.60;99.10
6738;DHT22;3406;49.902;8.596;2022-12-07T02:15:38;4.60;99.20
6738;DHT22;3406;49.902;8.596;2022-12-07T02:18:14;4.60;99.10
6738;DHT22;3406;49.902;8.596;2022-12-07T02:20:48;4.50;99.20
6738;DHT22;3406;49.902;8.596;2022-12-07T02:23:36;4.50;99.40
6738;DHT22;3406;49.902;8.596;2022-12-07T02:26:24;4.60;99.40
6738;DHT22;3406;49.902;8.596;2022-12-07T02:29:08;4.60;99.40
6738;DHT22;3406;49.902;8.596;2022-12-07T02:31:37;4.60;99.40
6738;DHT22;3406;49.902;8.596;2022-12-07T02:34:11;4.60;99.40
6738;DHT22;3406;49.902;8.596;2022-12-07T02:36:43;4.50;99.30
6738;DHT22;3406;49.902;8.596;2022-12-07T02:39:15;4.50;99.40
6738;DHT22;3406;49.902;8.596;2022-12-07T02:41:46;4.50;99.50
6738;DHT22;3406;49.902;8.596;2022-12-07T02:44:17;4.50;99.50
6738;DHT22;3406;49.902;8.596;2022-12-07T02:46:49;4.50;99.60
6738;DHT22;3406;49.902;8.596;2022-12-07T02:49:18;4.50;99.70
6738;DHT22;3406;49.902;8.596;2022-12-07T02:51:46;4.50;99.80
6738;DHT22;3406;49.902;8.596;2022-12-07T02:57:51;4.50;99.80
6738;DHT22;3406;49.902;8.596;2022-12-07T03:00:21;4.50;99.90
6738;DHT22;3406;49.902;8.596;2022-12-07T03:02:53;4.50;99.80
6738;DHT22;3406;49.902;8.596;2022-12-07T03:05:34;4.50;99.80
6738;DHT22;3406;49.902;8.596;2022-12-07T03:08:13;4.50;99.90
6738;DHT22;3406;49.902;8.596;2022-12-07T03:10:47;4.50;99.90
6738;DHT22;3406;49.902;8.596;2022-12-07T03:13:19;4.50;99.90
6738;DHT22;3406;49.902;8.596;2022-12-07T03:15:54;4.50;99.90
6738;DHT22;3406;49.902;8.596;2022-12-07T03:18:23;4.50;99.90
6738;DHT22;3406;49.902;8.596;2022-12-07T03:20:53;4.50;99.90
6738;DHT22;3406;49.902;8.596;2022-12-07T03:23:23;4.50;99.90
6738;DHT22;3406;49.902;8.596;2022-12-07T03:25:55;4.40;99.90
6738;DHT22;3406;49.902;8.596;2022-12-07T03:28:27;4.40;99.90
6738;DHT22;3406;49.902;8.596;2022-12-07T03:31:01;4.40;99.90
6738;DHT22;3406;49.902;8.596;2022-12-07T03:33:31;4.40;99.90
6738;DHT22;3406;49.902;8.596;2022-12-07T03:36:02;4.40;99.90
6738;DHT22;3406;49.902;8.596;2022-12-07T03:38:33;4.50;99.90
6738;DHT22;3406;49.902;8.596;2022-12-07T03:41:06;4.50;99.90
6738;DHT22;3406;49.902;8.596;2022-12-07T03:43:36;4.50;99.90
6738;DHT22;3406;49.902;8.596;2022-12-07T03:46:09;4.50;99.90
6738;DHT22;3406;49.902;8.596;2022-12-07T03:48:42;4.50;99.90
6738;DHT22;3406;49.902;8.596;2022-12-07T03:51:18;4.60;99.90
6738;DHT22;3406;49.902;8.596;2022-12-07T03:53:53;4.60;99.90
6738;DHT22;3406;49.902;8.596;2022-12-07T03:56:22;4.60;99.90
6738;DHT22;3406;49.902;8.596;2022-12-07T03:58:50;4.60;99.90
6738;DHT22;3406;49.902;8.596;2022-12-07T04:01:19;4.60;99.90
6738;DHT22;3406;49.902;8.596;2022-12-07T04:03:45;4.60;99.90
6738;DHT22;3406;49.902;8.596;2022-12-07T04:06:12;4.50;99.90
6738;DHT22;3406;49.902;8.596;2022-12-07T04:08:39;4.50;99.90
6738;DHT22;3406;49.902;8.596;2022-12-07T04:11:06;4.50;99.90
6738;DHT22;3406;49.902;8.596;2022-12-07T04:13:32;4.60;99.90
6738;DHT22;3406;49.902;8.596;2022-12-07T04:16:21;4.50;99.90
6738;DHT22;3406;49.902;8.596;2022-12-07T04:18:47;4.50;99.90
6738;DHT22;3406;49.902;8.596;2022-12-07T04:21:14;4.50;99.90
6738;DHT22;3406;49.902;8.596;2022-12-07T04:23:41;4.50;99.90
6738;DHT22;3406;49.902;8.596;2022-12-07T04:26:07;4.50;99.90
6738;DHT22;3406;49.902;8.596;2022-12-07T04:28:34;4.50;99.90
6738;DHT22;3406;49.902;8.596;2022-12-07T04:31:01;4.50;99.90
6738;DHT22;3406;49.902;8.596;2022-12-07T04:33:29;4.60;99.90
6738;DHT22;3406;49.902;8.596;2022-12-07T04:35:56;4.60;99.90
6738;DHT22;3406;49.902;8.596;2022-12-07T04:38:23;4.50;99.90
6738;DHT22;3406;49.902;8.596;2022-12-07T04:40:50;4.50;99.90
6738;DHT22;3406;49.902;8.596;2022-12-07T04:43:16;4.50;99.90
6738;DHT22;3406;49.902;8.596;2022-12-07T04:45:46;4.50;99.90
6738;DHT22;3406;49.902;8.596;2022-12-07T04:48:13;4.50;99.90
6738;DHT22;3406;49.902;8.596;2022-12-07T04:50:41;4.50;99.90
6738;DHT22;3406;49.902;8.596;2022-12-07T04:53:07;4.50;99.90
6738;DHT22;3406;49.902;8.596;2022-12-07T04:55:34;4.50;99.90
6738;DHT22;3406;49.902;8.596;2022-12-07T04:58:01;4.50;99.90
6738;DHT22;3406;49.902;8.596;2022-12-07T05:00:27;4.50;99.90
6738;DHT22;3406;49.902;8.596;2022-12-07T05:02:54;4.50;99.90
6738;DHT22;3406;49.902;8.596;2022-12-07T05:05:21;4.50;99.90
6738;DHT22;3406;49.902;8.596;2022-12-07T05:07:49;4.50;99.90
6738;DHT22;3406;49.902;8.596;2022-12-07T05:10:16;4.50;99.90
6738;DHT22;3406;49.902;8.596;2022-12-07T05:12:42;4.50;99.90
6738;DHT22;3406;49.902;8.596;2022-12-07T05:15:10;4.60;99.90
6738;DHT22;3406;49.902;8.596;2022-12-07T05:17:36;4.60;99.90
6738;DHT22;3406;49.902;8.596;2022-12-07T05:20:04;4.50;99.90
6738;DHT22;3406;49.902;8.596;2022-12-07T05:22:31;4.60;99.90
6738;DHT22;3406;49.902;8.596;2022-12-07T05:24:59;4.60;99.90
6738;DHT22;3406;49.902;8.596;2022-12-07T05:27:26;4.50;99.90
6738;DHT22;3406;49.902;8.596;2022-12-07T05:29:52;4.60;99.90
6738;DHT22;3406;49.902;8.596;2022-12-07T05:32:19;4.60;99.90
6738;DHT22;3406;49.902;8.596;2022-12-07T05:34:46;4.60;99.90
6738;DHT22;3406;49.902;8.596;2022-12-07T05:37:13;4.60;99.90
6738;DHT22;3406;49.902;8.596;2022-12-07T05:39:39;4.60;99.90
6738;DHT22;3406;49.902;8.596;2022-12-07T05:42:10;4.60;99.90
6738;DHT22;3406;49.902;8.596;2022-12-07T05:44:40;4.60;99.90
6738;DHT22;3406;49.902;8.596;2022-12-07T05:47:07;4.60;99.90
6738;DHT22;3406;49.902;8.596;2022-12-07T05:49:33;4.60;99.90
6738;DHT22;3406;49.902;8.596;2022-12-07T05:52:00;4.60;99.90
6738;DHT22;3406;49.902;8.596;2022-12-07T05:54:27;4.60;99.90
6738;DHT22;3406;49.902;8.596;2022-12-07T05:56:54;4.70;99.90
6738;DHT22;3406;49.902;8.596;2022-12-07T05:59:22;4.70;99.90
6738;DHT22;3406;49.902;8.596;2022-12-07T06:01:48;4.70;99.90
6738;DHT22;3406;49.902;8.596;2022-12-07T06:04:15;4.70;99.90
6738;DHT22;3406;49.902;8.596;2022-12-07T06:06:41;4.70;99.90
6738;DHT22;3406;49.902;8.596;2022-12-07T06:09:08;4.70;99.90
6738;DHT22;3406;49.902;8.596;2022-12-07T06:11:35;4.70;99.90
6738;DHT22;3406;49.902;8.596;2022-12-07T06:14:19;4.70;99.90
6738;DHT22;3406;49.902;8.596;2022-12-07T06:16:47;4.70;99.90
6738;DHT22;3406;49.902;8.596;2022-12-07T06:19:14;4.70;99.90
6738;DHT22;3406;49.902;8.596;2022-12-07T06:21:40;4.70;99.90
6738;DHT22;3406;49.902;8.596;2022-12-07T06:24:08;4.70;99.90
6738;DHT22;3406;49.902;8.596;2022-12-07T06:26:35;4.70;99.90
6738;DHT22;3406;49.902;8.596;2022-12-07T06:29:02;4.70;99.90
6738;DHT22;3406;49.902;8.596;2022-12-07T06:31:29;4.70;99.90
6738;DHT22;3406;49.902;8.596;2022-12-07T06:33:59;4.70;99.90
6738;DHT22;3406;49.902;8.596;2022-12-07T06:36:25;4.70;99.90
6738;DHT22;3406;49.902;8.596;2022-12-07T06:38:52;4.70;99.90
6738;DHT22;3406;49.902;8.596;2022-12-07T06:41:19;4.70;99.90
6738;DHT22;3406;49.902;8.596;2022-12-07T06:43:46;4.80;99.90
6738;DHT22;3406;49.902;8.596;2022-12-07T06:46:13;4.80;99.90
6738;DHT22;3406;49.902;8.596;2022-12-07T06:48:39;4.80;99.90
6738;DHT22;3406;49.902;8.596;2022-12-07T06:51:08;4.80;99.90
6738;DHT22;3406;49.902;8.596;2022-12-07T06:53:35;4.80;99.90
6738;DHT22;3406;49.902;8.596;2022-12-07T06:56:01;4.80;99.90
6738;DHT22;3406;49.902;8.596;2022-12-07T06:58:28;4.80;99.90
6738;DHT22;3406;49.902;8.596;2022-12-07T07:00:55;4.80;99.90
6738;DHT22;3406;49.902;8.596;2022-12-07T07:03:22;4.80;99.90
6738;DHT22;3406;49.902;8.596;2022-12-07T07:05:48;4.80;99.90
6738;DHT22;3406;49.902;8.596;2022-12-07T07:08:16;4.70;99.90
6738;DHT22;3406;49.902;8.596;2022-12-07T07:10:43;4.70;99.90
6738;DHT22;3406;49.902;8.596;2022-12-07T07:13:10;4.80;99.90
6738;DHT22;3406;49.902;8.596;2022-12-07T07:15:37;4.80;99.90
6738;DHT22;3406;49.902;8.596;2022-12-07T07:18:04;4.80;99.90
6738;DHT22;3406;49.902;8.596;2022-12-07T07:20:31;4.80;99.90
6738;DHT22;3406;49.902;8.596;2022-12-07T07:22:58;4.80;99.90
6738;DHT22;3406;49.902;8.596;2022-12-07T07:25:25;4.80;99.90
6738;DHT22;3406;49.902;8.596;2022-12-07T07:27:52;4.80;99.90
6738;DHT22;3406;49.902;8.596;2022-12-07T07:30:19;4.80;99.90
6738;DHT22;3406;49.902;8.596;2022-12-07T07:32:46;4.90;99.90
6738;DHT22;3406;49.902;8.596;2022-12-07T07:35:13;4.80;99.90
6738;DHT22;3406;49.902;8.596;2022-12-07T07:37:39;4.90;99.90
6738;DHT22;3406;49.902;8.596;2022-12-07T07:40:07;4.90;99.90
6738;DHT22;3406;49.902;8.596;2022-12-07T07:42:35;4.90;99.90
6738;DHT22;3406;49.902;8.596;2022-12-07T07:45:02;4.90;99.90
6738;DHT22;3406;49.902;8.596;2022-12-07T07:47:29;4.90;99.90
6738;DHT22;3406;49.902;8.596;2022-12-07T07:49:56;4.90;99.90
6738;DHT22;3406;49.902;8.596;2022-12-07T07:52:23;5.00;99.90
6738;DHT22;3406;49.902;8.596;2022-12-07T07:54:49;5.00;99.90
6738;DHT22;3406;49.902;8.596;2022-12-07T07:57:16;4.90;99.90
6738;DHT22;3406;49.902;8.596;2022-12-07T07:59:44;4.90;99.90
6738;DHT22;3406;49.902;8.596;2022-12-07T08:02:14;4.90;99.90
6738;DHT22;3406;49.902;8.596;2022-12-07T08:04:42;4.90;99.90
6738;DHT22;3406;49.902;8.596;2022-12-07T08:07:09;5.00;99.90
6738;DHT22;3406;49.902;8.596;2022-12-07T08:09:35;5.00;99.90
6738;DHT22;3406;49.902;8.596;2022-12-07T08:12:02;5.10;99.90
6738;DHT22;3406;49.902;8.596;2022-12-07T08:14:29;5.10;99.90
6738;DHT22;3406;49.902;8.596;2022-12-07T08:16:57;5.20;99.90
6738;DHT22;3406;49.902;8.596;2022-12-07T08:19:24;5.20;99.90
6738;DHT22;3406;49.902;8.596;2022-12-07T08:21:51;5.20;99.90
6738;DHT22;3406;49.902;8.596;2022-12-07T08:24:18;5.20;99.90
6738;DHT22;3406;49.902;8.596;2022-12-07T08:26:44;5.30;99.90
6738;DHT22;3406;49.902;8.596;2022-12-07T08:29:11;5.30;99.90
6738;DHT22;3406;49.902;8.596;2022-12-07T08:31:38;5.30;99.90
6738;DHT22;3406;49.902;8.596;2022-12-07T08:34:06;5.30;99.90
6738;DHT22;3406;49.902;8.596;2022-12-07T08:36:33;5.30;99.90
6738;DHT22;3406;49.902;8.596;2022-12-07T08:38:59;5.20;99.90
6738;DHT22;3406;49.902;8.596;2022-12-07T08:41:26;5.20;99.90
6738;DHT22;3406;49.902;8.596;2022-12-07T08:43:53;5.20;99.90
6738;DHT22;3406;49.902;8.596;2022-12-07T08:46:21;5.20;99.90
6738;DHT22;3406;49.902;8.596;2022-12-07T08:48:51;5.20;99.90
6738;DHT22;3406;49.902;8.596;2022-12-07T08:51:21;5.20;99.90
6738;DHT22;3406;49.902;8.596;2022-12-07T08:53:49;5.20;99.90
6738;DHT22;3406;49.902;8.596;2022-12-07T08:56:16;5.20;99.90
6738;DHT22;3406;49.902;8.596;2022-12-07T08:58:43;5.20;99.90
6738;DHT22;3406;49.902;8.596;2022-12-07T09:01:10;5.20;99.90
6738;DHT22;3406;49.902;8.596;2022-12-07T09:03:37;5.20;99.90
6738;DHT22;3406;49.902;8.596;2022-12-07T09:06:04;5.20;99.90
6738;DHT22;3406;49.902;8.596;2022-12-07T09:08:34;5.20;99.90
6738;DHT22;3406;49.902;8.596;2022-12-07T09:11:02;5.30;99.90
6738;DHT22;3406;49.902;8.596;2022-12-07T09:13:29;5.30;99.90
6738;DHT22;3406;49.902;8.596;2022-12-07T09:15:56;5.40;99.90
6738;DHT22;3406;49.902;8.596;2022-12-07T09:18:23;5.40;99.90
6738;DHT22;3406;49.902;8.596;2022-12-07T09:20:50;5.40;99.90
6738;DHT22;3406;49.902;8.596;2022-12-07T09:23:17;5.50;99.90
6738;DHT22;3406;49.902;8.596;2022-12-07T09:25:45;5.50;99.90
6738;DHT22;3406;49.902;8.596;2022-12-07T09:28:11;5.60;99.90
6738;DHT22;3406;49.902;8.596;2022-12-07T09:30:38;5.70;99.90
6738;DHT22;3406;49.902;8.596;2022-12-07T09:33:05;5.70;99.90
6738;DHT22;3406;49.902;8.596;2022-12-07T09:35:31;5.70;99.90
6738;DHT22;3406;49.902;8.596;2022-12-07T09:37:58;5.80;99.90
6738;DHT22;3406;49.902;8.596;2022-12-07T09:40:25;5.80;99.90
6738;DHT22;3406;49.902;8.596;2022-12-07T09:42:54;5.90;99.90
6738;DHT22;3406;49.902;8.596;2022-12-07T09:45:24;5.90;99.90
6738;DHT22;3406;49.902;8.596;2022-12-07T09:47:51;5.90;99.90
6738;DHT22;3406;49.902;8.596;2022-12-07T09:50:21;5.90;99.90
6738;DHT22;3406;49.902;8.596;2022-12-07T09:52:50;5.90;99.90
6738;DHT22;3406;49.902;8.596;2022-12-07T09:55:22;5.90;99.90
6738;DHT22;3406;49.902;8.596;2022-12-07T09:57:50;5.90;99.90
6738;DHT22;3406;49.902;8.596;2022-12-07T10:00:21;5.90;99.90
6738;DHT22;3406;49.902;8.596;2022-12-07T10:02:52;5.90;99.90
6738;DHT22;3406;49.902;8.596;2022-12-07T10:05:24;6.00;99.90
6738;DHT22;3406;49.902;8.596;2022-12-07T10:07:52;6.10;99.90
6738;DHT22;3406;49.902;8.596;2022-12-07T10:10:24;6.10;99.90
6738;DHT22;3406;49.902;8.596;2022-12-07T10:12:57;6.20;99.90
6738;DHT22;3406;49.902;8.596;2022-12-07T10:15:42;6.20;99.90
6738;DHT22;3406;49.902;8.596;2022-12-07T10:18:18;6.20;99.90
6738;DHT22;3406;49.902;8.596;2022-12-07T10:20:47;6.20;99.90
6738;DHT22;3406;49.902;8.596;2022-12-07T10:23:15;6.30;99.90
6738;DHT22;3406;49.902;8.596;2022-12-07T10:25:43;6.30;99.90
6738;DHT22;3406;49.902;8.596;2022-12-07T10:28:13;6.30;99.90
6738;DHT22;3406;49.902;8.596;2022-12-07T10:30:57;6.40;99.90
6738;DHT22;3406;49.902;8.596;2022-12-07T10:33:30;6.40;99.90
6738;DHT22;3406;49.902;8.596;2022-12-07T10:35:58;6.50;99.90
6738;DHT22;3406;49.902;8.596;2022-12-07T10:38:26;6.50;99.90
6738;DHT22;3406;49.902;8.596;2022-12-07T10:41:03;6.60;99.90
6738;DHT22;3406;49.902;8.596;2022-12-07T10:43:30;6.70;99.90
6738;DHT22;3406;49.902;8.596;2022-12-07T10:46:28;6.70;99.90
6738;DHT22;3406;49.902;8.596;2022-12-07T10:49:06;6.70;99.90
6738;DHT22;3406;49.902;8.596;2022-12-07T10:51:42;6.80;99.90
6738;DHT22;3406;49.902;8.596;2022-12-07T10:54:16;6.80;99.90
6738;DHT22;3406;49.902;8.596;2022-12-07T10:57:16;6.80;99.90
6738;DHT22;3406;49.902;8.596;2022-12-07T11:00:01;6.80;99.70
6738;DHT22;3406;49.902;8.596;2022-12-07T11:02:42;6.80;99.70
6738;DHT22;3406;49.902;8.596;2022-12-07T11:05:18;6.80;99.50
6738;DHT22;3406;49.902;8.596;2022-12-07T11:07:55;6.90;99.40
6738;DHT22;3406;49.902;8.596;2022-12-07T11:10:31;6.90;99.20
6738;DHT22;3406;49.902;8.596;2022-12-07T11:13:14;6.90;98.80
6738;DHT22;3406;49.902;8.596;2022-12-07T11:15:59;6.80;98.70
6738;DHT22;3406;49.902;8.596;2022-12-07T11:18:34;6.80;98.70
6738;DHT22;3406;49.902;8.596;2022-12-07T11:21:09;6.80;98.40
6738;DHT22;3406;49.902;8.596;2022-12-07T11:23:46;6.70;98.40
6738;DHT22;3406;49.902;8.596;2022-12-07T11:26:20;6.70;98.30
6738;DHT22;3406;49.902;8.596;2022-12-07T11:29:05;6.70;98.20
6738;DHT22;3406;49.902;8.596;2022-12-07T11:31:41;6.70;97.80
6738;DHT22;3406;49.902;8.596;2022-12-07T11:34:19;6.70;98.40
6738;DHT22;3406;49.902;8.596;2022-12-07T11:36:49;6.80;98.10
6738;DHT22;3406;49.902;8.596;2022-12-07T11:39:25;6.90;98.20
6738;DHT22;3406;49.902;8.596;2022-12-07T11:41:56;7.00;98.00
6738;DHT22;3406;49.902;8.596;2022-12-07T11:44:32;7.10;97.70
6738;DHT22;3406;49.902;8.596;2022-12-07T11:47:05;7.20;97.50
6738;DHT22;3406;49.902;8.596;2022-12-07T11:49:44;7.20;97.20
6738;DHT22;3406;49.902;8.596;2022-12-07T11:52:18;7.20;97.20
6738;DHT22;3406;49.902;8.596;2022-12-07T11:54:49;7.30;97.20
6738;DHT22;3406;49.902;8.596;2022-12-07T11:57:20;7.30;96.90
6738;DHT22;3406;49.902;8.596;2022-12-07T11:59:51;7.30;96.60
6738;DHT22;3406;49.902;8.596;2022-12-07T12:02:21;7.30;96.40
6738;DHT22;3406;49.902;8.596;2022-12-07T12:04:55;7.20;96.30
6738;DHT22;3406;49.902;8.596;2022-12-07T12:07:24;7.20;96.30
6738;DHT22;3406;49.902;8.596;2022-12-07T12:09:54;7.20;96.20
6738;DHT22;3406;49.902;8.596;2022-12-07T12:12:37;7.30;96.30
6738;DHT22;3406;49.902;8.596;2022-12-07T12:15:22;7.30;96.00
6738;DHT22;3406;49.902;8.596;2022-12-07T12:18:00;7.30;95.80
6738;DHT22;3406;49.902;8.596;2022-12-07T12:20:35;7.40;95.50
6738;DHT22;3406;49.902;8.596;2022-12-07T12:23:09;7.40;95.40
6738;DHT22;3406;49.902;8.596;2022-12-07T12:25:40;7.40;95.10
6738;DHT22;3406;49.902;8.596;2022-12-07T12:28:19;7.40;94.70
6738;DHT22;3406;49.902;8.596;2022-12-07T12:31:05;7.40;94.60
6738;DHT22;3406;49.902;8.596;2022-12-07T12:33:33;7.40;94.40
6738;DHT22;3406;49.902;8.596;2022-12-07T12:36:20;7.50;94.10
6738;DHT22;3406;49.902;8.596;2022-12-07T12:38:50;7.40;93.90
6738;DHT22;3406;49.902;8.596;2022-12-07T12:50:27;7.30;93.10
6738;DHT22;3406;49.902;8.596;2022-12-07T12:53:02;7.30;93.00
6738;DHT22;3406;49.902;8.596;2022-12-07T12:58:43;7.40;92.90
6738;DHT22;3406;49.902;8.596;2022-12-07T13:04:39;7.40;92.50
6738;DHT22;3406;49.902;8.596;2022-12-07T13:10:47;7.40;92.20
6738;DHT22;3406;49.902;8.596;2022-12-07T13:13:34;7.40;92.00
6738;DHT22;3406;49.902;8.596;2022-12-07T13:22:46;7.30;91.90
6738;DHT22;3406;49.902;8.596;2022-12-07T13:25:21;7.20;92.00
6738;DHT22;3406;49.902;8.596;2022-12-07T13:27:54;7.20;92.10
6738;DHT22;3406;49.902;8.596;2022-12-07T13:30:22;7.30;92.10
6738;DHT22;3406;49.902;8.596;2022-12-07T13:32:54;7.30;92.10
6738;DHT22;3406;49.902;8.596;2022-12-07T13:35:29;7.30;92.20
6738;DHT22;3406;49.902;8.596;2022-12-07T13:37:56;7.40;92.10
6738;DHT22;3406;49.902;8.596;2022-12-07T13:40:24;7.50;92.10
6738;DHT22;3406;49.902;8.596;2022-12-07T13:42:59;7.60;92.00
6738;DHT22;3406;49.902;8.596;2022-12-07T13:45:29;7.70;92.00
6738;DHT22;3406;49.902;8.596;2022-12-07T13:48:16;7.80;91.90
6738;DHT22;3406;49.902;8.596;2022-12-07T13:50:52;7.80;91.70
6738;DHT22;3406;49.902;8.596;2022-12-07T13:53:19;7.90;91.40
6738;DHT22;3406;49.902;8.596;2022-12-07T13:55:47;8.00;91.20
6738;DHT22;3406;49.902;8.596;2022-12-07T13:58:15;8.00;90.60
6738;DHT22;3406;49.902;8.596;2022-12-07T14:00:42;7.90;90.10
6738;DHT22;3406;49.902;8.596;2022-12-07T14:03:27;7.80;89.70
6738;DHT22;3406;49.902;8.596;2022-12-07T14:09:14;7.80;89.00
6738;DHT22;3406;49.902;8.596;2022-12-07T14:11:43;7.70;86.90
6738;DHT22;3406;49.902;8.596;2022-12-07T14:14:15;7.70;86.30
6738;DHT22;3406;49.902;8.596;2022-12-07T14:16:42;7.60;85.10
6738;DHT22;3406;49.902;8.596;2022-12-07T14:22:22;7.60;84.40
6738;DHT22;3406;49.902;8.596;2022-12-07T14:24:49;7.60;82.80
6738;DHT22;3406;49.902;8.596;2022-12-07T14:27:18;7.50;82.60
6738;DHT22;3406;49.902;8.596;2022-12-07T14:29:47;7.50;82.80
6738;DHT22;3406;49.902;8.596;2022-12-07T14:32:21;7.50;82.80
6738;DHT22;3406;49.902;8.596;2022-12-07T14:35:00;7.40;82.90
6738;DHT22;3406;49.902;8.596;2022-12-07T14:37:29;7.40;83.10
6738;DHT22;3406;49.902;8.596;2022-12-07T14:39:56;7.50;83.20
6738;DHT22;3406;49.902;8.596;2022-12-07T14:42:26;7.50;83.30
6738;DHT22;3406;49.902;8.596;2022-12-07T14:44:55;7.50;83.40
6738;DHT22;3406;49.902;8.596;2022-12-07T14:47:22;7.40;83.30
6738;DHT22;3406;49.902;8.596;2022-12-07T14:49:49;7.40;83.50
6738;DHT22;3406;49.902;8.596;2022-12-07T14:52:18;7.40;83.50
6738;DHT22;3406;49.902;8.596;2022-12-07T14:54:45;7.30;83.70
6738;DHT22;3406;49.902;8.596;2022-12-07T14:57:12;7.30;83.70
6738;DHT22;3406;49.902;8.596;2022-12-07T14:59:39;7.30;84.00
6738;DHT22;3406;49.902;8.596;2022-12-07T15:02:11;7.30;83.80
6738;DHT22;3406;49.902;8.596;2022-12-07T15:04:38;7.30;83.90
6738;DHT22;3406;49.902;8.596;2022-12-07T15:07:08;7.30;84.00
6738;DHT22;3406;49.902;8.596;2022-12-07T15:09:35;7.20;84.00
6738;DHT22;3406;49.902;8.596;2022-12-07T15:12:02;7.20;84.10
6738;DHT22;3406;49.902;8.596;2022-12-07T15:17:52;7.20;84.30
6738;DHT22;3406;49.902;8.596;2022-12-07T15:20:20;7.10;84.10
6738;DHT22;3406;49.902;8.596;2022-12-07T15:22:46;7.10;84.20
6738;DHT22;3406;49.902;8.596;2022-12-07T15:25:13;7.10;84.40
6738;DHT22;3406;49.902;8.596;2022-12-07T15:27:40;7.00;84.70
6738;DHT22;3406;49.902;8.596;2022-12-07T15:30:07;6.80;85.00
6738;DHT22;3406;49.902;8.596;2022-12-07T15:32:34;6.80;85.50
6738;DHT22;3406;49.902;8.596;2022-12-07T15:35:03;6.70;85.90
6738;DHT22;3406;49.902;8.596;2022-12-07T15:37:30;6.70;86.30
6738;DHT22;3406;49.902;8.596;2022-12-07T15:39:56;6.80;87.30
6738;DHT22;3406;49.902;8.596;2022-12-07T15:42:23;6.80;86.90
6738;DHT22;3406;49.902;8.596;2022-12-07T15:44:49;6.70;87.10
6738;DHT22;3406;49.902;8.596;2022-12-07T15:47:30;6.70;87.50
6738;DHT22;3406;49.902;8.596;2022-12-07T15:49:58;6.70;87.80
6738;DHT22;3406;49.902;8.596;2022-12-07T15:52:26;6.70;88.10
6738;DHT22;3406;49.902;8.596;2022-12-07T15:54:53;6.70;88.40
6738;DHT22;3406;49.902;8.596;2022-12-07T15:57:19;6.70;88.60
6738;DHT22;3406;49.902;8.596;2022-12-07T15:59:46;6.70;88.80
6738;DHT22;3406;49.902;8.596;2022-12-07T16:02:13;6.70;89.00
6738;DHT22;3406;49.902;8.596;2022-12-07T16:04:39;6.80;90.00
6738;DHT22;3406;49.902;8.596;2022-12-07T16:07:06;6.80;89.50
6738;DHT22;3406;49.902;8.596;2022-12-07T16:09:34;6.70;89.50
6738;DHT22;3406;49.902;8.596;2022-12-07T16:12:01;6.70;90.00
6738;DHT22;3406;49.902;8.596;2022-12-07T16:14:27;6.70;90.10
6738;DHT22;3406;49.902;8.596;2022-12-07T16:16:54;6.60;90.20
6738;DHT22;3406;49.902;8.596;2022-12-07T16:19:21;6.50;90.30
6738;DHT22;3406;49.902;8.596;2022-12-07T16:21:48;6.40;90.40
6738;DHT22;3406;49.902;8.596;2022-12-07T16:24:14;6.40;90.60
6738;DHT22;3406;49.902;8.596;2022-12-07T16:26:43;6.30;90.70
6738;DHT22;3406;49.902;8.596;2022-12-07T16:29:11;6.30;91.00
6738;DHT22;3406;49.902;8.596;2022-12-07T16:31:38;6.20;91.00
6738;DHT22;3406;49.902;8.596;2022-12-07T16:34:04;6.20;91.00
6738;DHT22;3406;49.902;8.596;2022-12-07T16:36:31;6.10;91.00
6738;DHT22;3406;49.902;8.596;2022-12-07T16:38:59;6.10;91.20
6738;DHT22;3406;49.902;8.596;2022-12-07T16:41:26;6.10;91.30
6738;DHT22;3406;49.902;8.596;2022-12-07T16:43:54;6.10;91.30
6738;DHT22;3406;49.902;8.596;2022-12-07T16:46:21;6.10;91.30
6738;DHT22;3406;49.902;8.596;2022-12-07T16:48:48;6.10;91.30
6738;DHT22;3406;49.902;8.596;2022-12-07T16:51:15;6.10;91.40
6738;DHT22;3406;49.902;8.596;2022-12-07T16:53:42;6.10;91.50
6738;DHT22;3406;49.902;8.596;2022-12-07T16:56:10;6.10;91.60
6738;DHT22;3406;49.902;8.596;2022-12-07T16:58:37;6.20;91.60
6738;DHT22;3406;49.902;8.596;2022-12-07T17:01:10;6.20;91.60
6738;DHT22;3406;49.902;8.596;2022-12-07T17:03:37;6.10;91.70
6738;DHT22;3406;49.902;8.596;2022-12-07T17:06:11;6.10;91.70
6738;DHT22;3406;49.902;8.596;2022-12-07T17:08:38;6.10;91.90
6738;DHT22;3406;49.902;8.596;2022-12-07T17:11:09;6.20;91.90
6738;DHT22;3406;49.902;8.596;2022-12-07T17:13:36;6.20;92.10